Погода Бибикина 2 недели

Гродненская область, Белоруссия

18 - 31 июля
  • 18июля
    Сегодня
    +14°
    +26°
    Ясно и безоблачно
    ВремяПогодаТемператураВлажностьДавлениеВетер, м/сВероятность осадков
    00:00Облачно с прояснениями+21°C81 %749 мм1.7 м/с16 %
    03:00Облачно с прояснениями+20°C66 %749 мм3.3 м/с4 %
    06:00Пасмурно, сплошная облачность+18°C78 %750 мм2.5 м/с29 %
    09:00Облачно с прояснениями+20°C76 %750 мм2.5 м/с31 %
    12:00Практически безоблачно+24°C60 %750 мм3.0 м/с12 %
    15:00Ясно и безоблачно+25°C52 %750 мм5.2 м/с15 %
    18:00Небольшая облачность+25°C45 %749 мм5.3 м/с4 %
    21:00Ясно и безоблачно+22°C59 %750 мм3.1 м/с2 %
  • 19июля
    Пятница
    +13°
    +25°
    Ясно и безоблачно
    ВремяПогодаТемператураВлажностьДавлениеВетер, м/сВероятность осадков
    00:00Практически безоблачно+18°C64 %750 мм3.3 м/с2 %
    03:00Практически безоблачно+16°C78 %751 мм2.5 м/с2 %
    06:00Практически безоблачно+14°C88 %750 мм3.4 м/с2 %
    09:00Ясно и безоблачно+17°C77 %750 мм3.0 м/с2 %
    12:00Ясно и безоблачно+21°C64 %750 мм3.6 м/с2 %
    15:00Ясно и безоблачно+24°C53 %749 мм4.0 м/с2 %
    18:00Ясно и безоблачно+24°C48 %748 мм4.1 м/с2 %
    21:00Ясно и безоблачно+21°C61 %748 мм2.7 м/с2 %
  • 20июля
    Суббота
    +13°
    +24°
    Ясно и безоблачно
    ВремяПогодаТемператураВлажностьДавлениеВетер, м/сВероятность осадков
    00:00Ясно и безоблачно+18°C63 %748 мм3.8 м/с2 %
    03:00Ясно и безоблачно+14°C81 %747 мм1.8 м/с2 %
    06:00Ясно и безоблачно+13°C84 %747 мм2.2 м/с2 %
    09:00Ясно и безоблачно+17°C78 %747 мм2.1 м/с2 %
    12:00Практически безоблачно+21°C61 %746 мм3.0 м/с2 %
    15:00Ясно и безоблачно+23°C48 %746 мм2.6 м/с2 %
    18:00Ясно и безоблачно+24°C46 %745 мм2.0 м/с2 %
    21:00Облачно с прояснениями+22°C65 %744 мм1.1 м/с2 %
  • 21июля
    Воскресенье
    +14°
    +26°
    Облачно с прояснениями
    ВремяПогодаТемператураВлажностьДавлениеВетер, м/сВероятность осадков
    00:00Облачно с прояснениями+17°C66 %744 мм2.2 м/с2 %
    03:00Небольшая облачность+15°C82 %743 мм1.6 м/с2 %
    06:00Ясно и безоблачно+14°C88 %743 мм1.6 м/с2 %
    09:00Ясно и безоблачно+20°C71 %743 мм1.4 м/с2 %
    12:00Практически безоблачно+24°C51 %744 мм1.7 м/с6 %
    15:00Облачно с прояснениями+25°C43 %743 мм2.0 м/с13 %
    18:00Практически безоблачно+26°C42 %742 мм0.9 м/с6 %
    21:00Небольшая облачность+24°C58 %742 мм1.0 м/с3 %
  • 22июля
    Понедельник
    +14°
    +27°
    Практически безоблачно
    ВремяПогодаТемператураВлажностьДавлениеВетер, м/сВероятность осадков
    00:00Практически безоблачно+18°C75 %742 мм1.3 м/с2 %
    03:00Ясно и безоблачно+16°C82 %742 мм1.9 м/с2 %
    06:00Практически безоблачно+15°C86 %742 мм1.4 м/с2 %
    09:00Ясно и безоблачно+21°C65 %743 мм1.4 м/с2 %
    12:00Ясно и безоблачно+26°C49 %743 мм1.0 м/с3 %
    15:00Практически безоблачно+27°C48 %743 мм1.5 м/с10 %
    18:00Ясно и безоблачно+26°C45 %742 мм1.5 м/с11 %
    21:00Ясно и безоблачно+23°C61 %743 мм1.3 м/с10 %
Мы используем cookies
Соглашаюсь